Terminal Aerodrome Forecast
Issued by NWS

Home | Current Version | Previous Version | Text Only | Print | Product List | Glossary On
Versions: 1 2 3 4 5 6 7 8 9 10 11 12 13 14 15 16 17 18 19 20 21 22 23 24 25 26
000
FTUS46 KLOX 030300 AAA
TAFLAX
TAF AMD
KLAX 030300Z 0303/0406 25011KT P6SM FEW008
     FM030400 25007KT P6SM BKN007
     FM030800 VRB03KT P6SM OVC010
     FM031400 20005KT 4SM BR OVC012
     FM031800 25008KT 4SM HZ BKN015
     FM032000 25011KT P6SM SCT250
     FM040400 25009KT 5SM HZ BKN010=

USA.gov is the U.S. government's official web portal to all federal, state and local government web resources and services.